sensor_id;sensor_type;location;lat;lon;timestamp;P1;durP1;ratioP1;P2;durP2;ratioP2
26654;SDS011;14278;50.784;4.630;2023-03-23T00:02:23;1.50;;;1.40;;
26654;SDS011;14278;50.784;4.630;2023-03-23T00:04:50;3.63;;;1.73;;
26654;SDS011;14278;50.784;4.630;2023-03-23T00:07:16;1.50;;;1.40;;
26654;SDS011;14278;50.784;4.630;2023-03-23T00:09:46;2.80;;;2.00;;
26654;SDS011;14278;50.784;4.630;2023-03-23T00:12:18;2.20;;;1.70;;
26654;SDS011;14278;50.784;4.630;2023-03-23T00:14:44;1.70;;;1.60;;
26654;SDS011;14278;50.784;4.630;2023-03-23T00:17:10;3.33;;;1.67;;
26654;SDS011;14278;50.784;4.630;2023-03-23T00:19:39;1.77;;;1.63;;
26654;SDS011;14278;50.784;4.630;2023-03-23T00:22:17;2.03;;;1.70;;
26654;SDS011;14278;50.784;4.630;2023-03-23T00:24:44;1.83;;;1.70;;
26654;SDS011;14278;50.784;4.630;2023-03-23T00:27:10;1.67;;;1.57;;
26654;SDS011;14278;50.784;4.630;2023-03-23T00:29:39;1.83;;;1.73;;
26654;SDS011;14278;50.784;4.630;2023-03-23T00:32:06;1.67;;;1.50;;
26654;SDS011;14278;50.784;4.630;2023-03-23T00:34:31;1.40;;;1.30;;
26654;SDS011;14278;50.784;4.630;2023-03-23T00:36:59;1.50;;;1.40;;
26654;SDS011;14278;50.784;4.630;2023-03-23T00:39:26;1.60;;;1.30;;
26654;SDS011;14278;50.784;4.630;2023-03-23T00:41:53;1.70;;;1.60;;
26654;SDS011;14278;50.784;4.630;2023-03-23T00:44:25;1.80;;;1.70;;
26654;SDS011;14278;50.784;4.630;2023-03-23T00:47:01;2.03;;;1.73;;
26654;SDS011;14278;50.784;4.630;2023-03-23T00:49:28;2.03;;;1.83;;
26654;SDS011;14278;50.784;4.630;2023-03-23T00:51:55;1.87;;;1.63;;
26654;SDS011;14278;50.784;4.630;2023-03-23T00:54:22;1.97;;;1.47;;
26654;SDS011;14278;50.784;4.630;2023-03-23T00:56:49;2.57;;;2.27;;
26654;SDS011;14278;50.784;4.630;2023-03-23T00:59:16;1.93;;;1.60;;
26654;SDS011;14278;50.784;4.630;2023-03-23T01:01:42;2.60;;;1.60;;
26654;SDS011;14278;50.784;4.630;2023-03-23T01:04:08;1.63;;;1.43;;
26654;SDS011;14278;50.784;4.630;2023-03-23T01:06:37;2.87;;;1.87;;
26654;SDS011;14278;50.784;4.630;2023-03-23T01:09:06;2.60;;;1.90;;
26654;SDS011;14278;50.784;4.630;2023-03-23T01:11:33;1.43;;;1.33;;
26654;SDS011;14278;50.784;4.630;2023-03-23T01:14:00;2.60;;;2.00;;
26654;SDS011;14278;50.784;4.630;2023-03-23T01:16:26;1.47;;;1.37;;
26654;SDS011;14278;50.784;4.630;2023-03-23T01:18:52;2.00;;;1.60;;
26654;SDS011;14278;50.784;4.630;2023-03-23T01:21:19;1.17;;;1.07;;
26654;SDS011;14278;50.784;4.630;2023-03-23T01:23:46;2.70;;;1.83;;
26654;SDS011;14278;50.784;4.630;2023-03-23T01:26:13;1.57;;;1.47;;
26654;SDS011;14278;50.784;4.630;2023-03-23T01:28:49;9.07;;;1.63;;
26654;SDS011;14278;50.784;4.630;2023-03-23T01:31:17;1.40;;;1.30;;
26654;SDS011;14278;50.784;4.630;2023-03-23T01:33:45;1.73;;;1.57;;
26654;SDS011;14278;50.784;4.630;2023-03-23T01:36:12;3.43;;;1.43;;
26654;SDS011;14278;50.784;4.630;2023-03-23T01:38:41;3.07;;;1.80;;
26654;SDS011;14278;50.784;4.630;2023-03-23T01:41:07;1.23;;;1.23;;
26654;SDS011;14278;50.784;4.630;2023-03-23T01:43:33;2.10;;;2.00;;
26654;SDS011;14278;50.784;4.630;2023-03-23T01:46:00;2.27;;;1.80;;
26654;SDS011;14278;50.784;4.630;2023-03-23T01:48:30;1.40;;;1.30;;
26654;SDS011;14278;50.784;4.630;2023-03-23T01:51:08;0.93;;;0.93;;
26654;SDS011;14278;50.784;4.630;2023-03-23T01:53:48;0.93;;;0.93;;
26654;SDS011;14278;50.784;4.630;2023-03-23T01:56:19;2.40;;;1.73;;
26654;SDS011;14278;50.784;4.630;2023-03-23T01:58:52;3.27;;;1.70;;
26654;SDS011;14278;50.784;4.630;2023-03-23T02:01:20;2.67;;;1.70;;
26654;SDS011;14278;50.784;4.630;2023-03-23T02:03:49;1.50;;;1.40;;
26654;SDS011;14278;50.784;4.630;2023-03-23T02:06:16;2.07;;;1.60;;
26654;SDS011;14278;50.784;4.630;2023-03-23T02:08:42;0.90;;;0.90;;
26654;SDS011;14278;50.784;4.630;2023-03-23T02:11:19;2.23;;;1.40;;
26654;SDS011;14278;50.784;4.630;2023-03-23T02:13:46;2.70;;;1.67;;
26654;SDS011;14278;50.784;4.630;2023-03-23T02:18:58;1.30;;;1.20;;
26654;SDS011;14278;50.784;4.630;2023-03-23T02:27:42;1.37;;;1.20;;
26654;SDS011;14278;50.784;4.630;2023-03-23T02:38:38;1.07;;;0.97;;
26654;SDS011;14278;50.784;4.630;2023-03-23T02:41:06;1.47;;;1.37;;
26654;SDS011;14278;50.784;4.630;2023-03-23T02:43:38;1.90;;;1.53;;
26654;SDS011;14278;50.784;4.630;2023-03-23T02:46:07;3.63;;;1.70;;
26654;SDS011;14278;50.784;4.630;2023-03-23T02:48:35;1.30;;;1.20;;
26654;SDS011;14278;50.784;4.630;2023-03-23T02:51:05;1.27;;;1.00;;
26654;SDS011;14278;50.784;4.630;2023-03-23T02:53:34;1.60;;;1.40;;
26654;SDS011;14278;50.784;4.630;2023-03-23T02:56:05;0.73;;;0.73;;
26654;SDS011;14278;50.784;4.630;2023-03-23T02:58:32;1.47;;;1.27;;
26654;SDS011;14278;50.784;4.630;2023-03-23T03:00:59;1.43;;;1.13;;
26654;SDS011;14278;50.784;4.630;2023-03-23T03:03:28;0.90;;;0.90;;
26654;SDS011;14278;50.784;4.630;2023-03-23T03:06:10;7.67;;;1.80;;
26654;SDS011;14278;50.784;4.630;2023-03-23T03:09:25;3.90;;;1.37;;
26654;SDS011;14278;50.784;4.630;2023-03-23T03:11:45;1.67;;;1.10;;
26654;SDS011;14278;50.784;4.630;2023-03-23T03:14:33;1.33;;;1.10;;
26654;SDS011;14278;50.784;4.630;2023-03-23T03:17:06;1.40;;;1.20;;
26654;SDS011;14278;50.784;4.630;2023-03-23T03:19:43;1.83;;;1.30;;
26654;SDS011;14278;50.784;4.630;2023-03-23T03:22:13;2.63;;;1.30;;
26654;SDS011;14278;50.784;4.630;2023-03-23T03:24:40;1.37;;;1.27;;
26654;SDS011;14278;50.784;4.630;2023-03-23T03:27:11;1.70;;;1.60;;
26654;SDS011;14278;50.784;4.630;2023-03-23T03:29:41;1.77;;;1.30;;
26654;SDS011;14278;50.784;4.630;2023-03-23T03:32:16;2.90;;;1.27;;
26654;SDS011;14278;50.784;4.630;2023-03-23T03:34:47;2.17;;;1.30;;
26654;SDS011;14278;50.784;4.630;2023-03-23T03:37:16;0.83;;;0.83;;
26654;SDS011;14278;50.784;4.630;2023-03-23T03:39:43;1.73;;;1.00;;
26654;SDS011;14278;50.784;4.630;2023-03-23T03:42:09;1.37;;;1.03;;
26654;SDS011;14278;50.784;4.630;2023-03-23T03:44:35;1.17;;;0.97;;
26654;SDS011;14278;50.784;4.630;2023-03-23T03:47:01;1.83;;;1.30;;
26654;SDS011;14278;50.784;4.630;2023-03-23T03:49:27;1.13;;;1.03;;
26654;SDS011;14278;50.784;4.630;2023-03-23T03:51:53;1.17;;;0.93;;
26654;SDS011;14278;50.784;4.630;2023-03-23T03:54:19;1.57;;;1.17;;
26654;SDS011;14278;50.784;4.630;2023-03-23T03:56:45;1.17;;;0.93;;
26654;SDS011;14278;50.784;4.630;2023-03-23T03:59:11;1.93;;;1.57;;
26654;SDS011;14278;50.784;4.630;2023-03-23T04:01:38;2.53;;;1.30;;
26654;SDS011;14278;50.784;4.630;2023-03-23T04:04:04;1.23;;;1.13;;
26654;SDS011;14278;50.784;4.630;2023-03-23T04:06:33;1.63;;;1.10;;
26654;SDS011;14278;50.784;4.630;2023-03-23T04:09:03;0.90;;;0.90;;
26654;SDS011;14278;50.784;4.630;2023-03-23T04:11:31;0.83;;;0.83;;
26654;SDS011;14278;50.784;4.630;2023-03-23T04:13:58;2.20;;;1.47;;
26654;SDS011;14278;50.784;4.630;2023-03-23T04:16:23;3.47;;;1.50;;
26654;SDS011;14278;50.784;4.630;2023-03-23T04:18:51;2.53;;;1.43;;
26654;SDS011;14278;50.784;4.630;2023-03-23T04:21:16;1.50;;;1.07;;
26654;SDS011;14278;50.784;4.630;2023-03-23T04:23:42;2.40;;;1.20;;
26654;SDS011;14278;50.784;4.630;2023-03-23T04:26:09;1.27;;;0.83;;
26654;SDS011;14278;50.784;4.630;2023-03-23T04:28:38;1.10;;;0.90;;
26654;SDS011;14278;50.784;4.630;2023-03-23T04:31:04;1.30;;;1.13;;
26654;SDS011;14278;50.784;4.630;2023-03-23T04:33:30;3.60;;;0.97;;
26654;SDS011;14278;50.784;4.630;2023-03-23T04:35:56;0.70;;;0.60;;
26654;SDS011;14278;50.784;4.630;2023-03-23T04:38:26;0.80;;;0.77;;
26654;SDS011;14278;50.784;4.630;2023-03-23T04:40:53;0.87;;;0.80;;
26654;SDS011;14278;50.784;4.630;2023-03-23T04:43:20;0.60;;;0.60;;
26654;SDS011;14278;50.784;4.630;2023-03-23T04:45:51;1.83;;;0.93;;
26654;SDS011;14278;50.784;4.630;2023-03-23T04:48:21;2.67;;;0.60;;
26654;SDS011;14278;50.784;4.630;2023-03-23T04:50:48;1.67;;;0.60;;
26654;SDS011;14278;50.784;4.630;2023-03-23T04:53:15;0.50;;;0.50;;
26654;SDS011;14278;50.784;4.630;2023-03-23T04:55:42;2.20;;;0.90;;
26654;SDS011;14278;50.784;4.630;2023-03-23T04:58:08;0.70;;;0.60;;
26654;SDS011;14278;50.784;4.630;2023-03-23T05:00:35;2.50;;;0.90;;
26654;SDS011;14278;50.784;4.630;2023-03-23T05:03:02;1.07;;;0.83;;
26654;SDS011;14278;50.784;4.630;2023-03-23T05:05:28;1.10;;;1.00;;
26654;SDS011;14278;50.784;4.630;2023-03-23T05:07:55;1.53;;;0.67;;
26654;SDS011;14278;50.784;4.630;2023-03-23T05:10:22;1.33;;;0.90;;
26654;SDS011;14278;50.784;4.630;2023-03-23T05:12:48;1.00;;;0.80;;
26654;SDS011;14278;50.784;4.630;2023-03-23T05:15:15;3.30;;;0.80;;
26654;SDS011;14278;50.784;4.630;2023-03-23T05:17:41;1.10;;;0.80;;
26654;SDS011;14278;50.784;4.630;2023-03-23T05:20:12;2.47;;;0.60;;
26654;SDS011;14278;50.784;4.630;2023-03-23T05:22:39;1.07;;;0.60;;
26654;SDS011;14278;50.784;4.630;2023-03-23T05:25:06;1.37;;;1.03;;
26654;SDS011;14278;50.784;4.630;2023-03-23T05:27:37;0.57;;;0.57;;
26654;SDS011;14278;50.784;4.630;2023-03-23T05:30:04;2.10;;;0.90;;
26654;SDS011;14278;50.784;4.630;2023-03-23T05:32:31;3.30;;;1.43;;
26654;SDS011;14278;50.784;4.630;2023-03-23T05:34:58;2.10;;;0.90;;
26654;SDS011;14278;50.784;4.630;2023-03-23T05:37:25;1.60;;;0.87;;
26654;SDS011;14278;50.784;4.630;2023-03-23T05:39:52;3.80;;;0.70;;
26654;SDS011;14278;50.784;4.630;2023-03-23T05:42:20;0.97;;;0.77;;
26654;SDS011;14278;50.784;4.630;2023-03-23T05:44:49;1.00;;;0.80;;
26654;SDS011;14278;50.784;4.630;2023-03-23T05:47:15;0.60;;;0.60;;
26654;SDS011;14278;50.784;4.630;2023-03-23T05:49:42;1.03;;;0.70;;
26654;SDS011;14278;50.784;4.630;2023-03-23T05:52:08;0.50;;;0.50;;
26654;SDS011;14278;50.784;4.630;2023-03-23T05:54:34;0.63;;;0.63;;
26654;SDS011;14278;50.784;4.630;2023-03-23T05:57:00;9.43;;;1.23;;
26654;SDS011;14278;50.784;4.630;2023-03-23T05:59:26;0.60;;;0.60;;
26654;SDS011;14278;50.784;4.630;2023-03-23T06:01:52;2.97;;;0.90;;
26654;SDS011;14278;50.784;4.630;2023-03-23T06:04:24;3.80;;;1.30;;
26654;SDS011;14278;50.784;4.630;2023-03-23T06:06:50;0.80;;;0.80;;
26654;SDS011;14278;50.784;4.630;2023-03-23T06:09:19;2.20;;;1.07;;
26654;SDS011;14278;50.784;4.630;2023-03-23T06:11:46;0.63;;;0.63;;
26654;SDS011;14278;50.784;4.630;2023-03-23T06:14:12;2.13;;;1.17;;
26654;SDS011;14278;50.784;4.630;2023-03-23T06:16:38;0.83;;;0.67;;
26654;SDS011;14278;50.784;4.630;2023-03-23T06:19:05;0.70;;;0.70;;
26654;SDS011;14278;50.784;4.630;2023-03-23T06:21:31;0.60;;;0.60;;
26654;SDS011;14278;50.784;4.630;2023-03-23T06:23:58;1.07;;;0.97;;
26654;SDS011;14278;50.784;4.630;2023-03-23T06:26:28;3.13;;;1.03;;
26654;SDS011;14278;50.784;4.630;2023-03-23T06:28:57;1.50;;;0.73;;
26654;SDS011;14278;50.784;4.630;2023-03-23T06:31:24;1.27;;;0.60;;
26654;SDS011;14278;50.784;4.630;2023-03-23T06:33:51;1.03;;;0.70;;
26654;SDS011;14278;50.784;4.630;2023-03-23T06:36:17;1.57;;;1.13;;
26654;SDS011;14278;50.784;4.630;2023-03-23T06:38:44;1.00;;;0.80;;
26654;SDS011;14278;50.784;4.630;2023-03-23T06:41:09;1.60;;;0.93;;
26654;SDS011;14278;50.784;4.630;2023-03-23T06:43:38;2.33;;;1.30;;
26654;SDS011;14278;50.784;4.630;2023-03-23T06:46:07;1.40;;;1.17;;
26654;SDS011;14278;50.784;4.630;2023-03-23T06:48:33;2.37;;;1.57;;
26654;SDS011;14278;50.784;4.630;2023-03-23T06:50:59;2.23;;;0.90;;
26654;SDS011;14278;50.784;4.630;2023-03-23T06:53:34;0.90;;;0.90;;
26654;SDS011;14278;50.784;4.630;2023-03-23T06:56:01;1.97;;;0.87;;
26654;SDS011;14278;50.784;4.630;2023-03-23T06:58:26;2.77;;;1.10;;
26654;SDS011;14278;50.784;4.630;2023-03-23T07:00:53;0.83;;;0.60;;
26654;SDS011;14278;50.784;4.630;2023-03-23T07:03:22;1.73;;;1.03;;
26654;SDS011;14278;50.784;4.630;2023-03-23T07:05:48;2.03;;;1.07;;
26654;SDS011;14278;50.784;4.630;2023-03-23T07:08:15;1.10;;;0.83;;
26654;SDS011;14278;50.784;4.630;2023-03-23T07:10:41;1.57;;;0.87;;
26654;SDS011;14278;50.784;4.630;2023-03-23T07:13:07;0.63;;;0.60;;
26654;SDS011;14278;50.784;4.630;2023-03-23T07:15:32;1.93;;;0.90;;
26654;SDS011;14278;50.784;4.630;2023-03-23T07:18:14;1.60;;;1.00;;
26654;SDS011;14278;50.784;4.630;2023-03-23T07:20:40;1.77;;;0.87;;
26654;SDS011;14278;50.784;4.630;2023-03-23T07:23:06;2.63;;;1.10;;
26654;SDS011;14278;50.784;4.630;2023-03-23T07:25:32;1.67;;;1.10;;
26654;SDS011;14278;50.784;4.630;2023-03-23T07:27:59;1.70;;;1.10;;
26654;SDS011;14278;50.784;4.630;2023-03-23T07:30:26;1.60;;;0.93;;
26654;SDS011;14278;50.784;4.630;2023-03-23T07:32:54;1.97;;;1.03;;
26654;SDS011;14278;50.784;4.630;2023-03-23T07:35:20;0.83;;;0.53;;
26654;SDS011;14278;50.784;4.630;2023-03-23T07:37:47;2.43;;;0.77;;
26654;SDS011;14278;50.784;4.630;2023-03-23T07:40:14;7.30;;;0.67;;
26654;SDS011;14278;50.784;4.630;2023-03-23T07:42:44;0.80;;;0.80;;
26654;SDS011;14278;50.784;4.630;2023-03-23T07:45:14;0.93;;;0.77;;
26654;SDS011;14278;50.784;4.630;2023-03-23T07:47:40;0.80;;;0.80;;
26654;SDS011;14278;50.784;4.630;2023-03-23T07:50:07;0.70;;;0.70;;
26654;SDS011;14278;50.784;4.630;2023-03-23T07:52:34;0.83;;;0.57;;
26654;SDS011;14278;50.784;4.630;2023-03-23T07:55:01;0.90;;;0.83;;
26654;SDS011;14278;50.784;4.630;2023-03-23T07:57:29;1.57;;;0.93;;
26654;SDS011;14278;50.784;4.630;2023-03-23T07:59:56;0.80;;;0.80;;
26654;SDS011;14278;50.784;4.630;2023-03-23T08:02:23;0.90;;;0.70;;
26654;SDS011;14278;50.784;4.630;2023-03-23T08:04:49;0.80;;;0.80;;
26654;SDS011;14278;50.784;4.630;2023-03-23T08:07:16;3.13;;;0.80;;
26654;SDS011;14278;50.784;4.630;2023-03-23T08:09:44;2.10;;;1.30;;
26654;SDS011;14278;50.784;4.630;2023-03-23T08:12:10;1.00;;;0.90;;
26654;SDS011;14278;50.784;4.630;2023-03-23T08:14:37;0.80;;;0.80;;
26654;SDS011;14278;50.784;4.630;2023-03-23T08:17:03;3.17;;;1.33;;
26654;SDS011;14278;50.784;4.630;2023-03-23T08:19:29;1.23;;;0.80;;
26654;SDS011;14278;50.784;4.630;2023-03-23T08:21:55;1.03;;;0.73;;
26654;SDS011;14278;50.784;4.630;2023-03-23T08:24:22;1.73;;;0.97;;
26654;SDS011;14278;50.784;4.630;2023-03-23T08:26:48;0.57;;;0.57;;
26654;SDS011;14278;50.784;4.630;2023-03-23T08:29:14;0.77;;;0.50;;
26654;SDS011;14278;50.784;4.630;2023-03-23T08:31:41;0.50;;;0.50;;
26654;SDS011;14278;50.784;4.630;2023-03-23T08:34:09;0.83;;;0.60;;
26654;SDS011;14278;50.784;4.630;2023-03-23T08:36:35;0.93;;;0.70;;
26654;SDS011;14278;50.784;4.630;2023-03-23T08:39:02;0.50;;;0.50;;
26654;SDS011;14278;50.784;4.630;2023-03-23T08:41:30;0.90;;;0.40;;
26654;SDS011;14278;50.784;4.630;2023-03-23T08:43:56;0.50;;;0.30;;
26654;SDS011;14278;50.784;4.630;2023-03-23T08:46:22;1.47;;;0.57;;
26654;SDS011;14278;50.784;4.630;2023-03-23T08:48:48;0.53;;;0.47;;
26654;SDS011;14278;50.784;4.630;2023-03-23T08:51:14;0.57;;;0.50;;
26654;SDS011;14278;50.784;4.630;2023-03-23T08:53:40;0.53;;;0.50;;
26654;SDS011;14278;50.784;4.630;2023-03-23T08:56:08;0.40;;;0.30;;
26654;SDS011;14278;50.784;4.630;2023-03-23T08:58:37;0.47;;;0.40;;
26654;SDS011;14278;50.784;4.630;2023-03-23T09:01:04;1.03;;;0.50;;
26654;SDS011;14278;50.784;4.630;2023-03-23T09:03:32;0.67;;;0.50;;
26654;SDS011;14278;50.784;4.630;2023-03-23T09:06:00;0.30;;;0.30;;
26654;SDS011;14278;50.784;4.630;2023-03-23T09:08:28;0.20;;;0.20;;
26654;SDS011;14278;50.784;4.630;2023-03-23T09:11:01;0.83;;;0.37;;
26654;SDS011;14278;50.784;4.630;2023-03-23T09:13:29;1.40;;;0.60;;
26654;SDS011;14278;50.784;4.630;2023-03-23T09:15:55;0.30;;;0.30;;
26654;SDS011;14278;50.784;4.630;2023-03-23T09:18:21;0.27;;;0.27;;
26654;SDS011;14278;50.784;4.630;2023-03-23T09:20:49;0.67;;;0.60;;
26654;SDS011;14278;50.784;4.630;2023-03-23T09:23:15;0.30;;;0.30;;
26654;SDS011;14278;50.784;4.630;2023-03-23T09:25:41;0.37;;;0.37;;
26654;SDS011;14278;50.784;4.630;2023-03-23T09:28:08;1.27;;;0.53;;
26654;SDS011;14278;50.784;4.630;2023-03-23T09:30:34;0.40;;;0.40;;
26654;SDS011;14278;50.784;4.630;2023-03-23T09:33:02;0.23;;;0.23;;
26654;SDS011;14278;50.784;4.630;2023-03-23T09:35:30;1.03;;;0.60;;
26654;SDS011;14278;50.784;4.630;2023-03-23T09:38:00;0.60;;;0.60;;
26654;SDS011;14278;50.784;4.630;2023-03-23T09:40:30;0.63;;;0.63;;
26654;SDS011;14278;50.784;4.630;2023-03-23T09:43:07;0.40;;;0.40;;
26654;SDS011;14278;50.784;4.630;2023-03-23T09:45:48;0.50;;;0.50;;
26654;SDS011;14278;50.784;4.630;2023-03-23T09:51:07;0.43;;;0.43;;
26654;SDS011;14278;50.784;4.630;2023-03-23T09:53:57;0.47;;;0.43;;
26654;SDS011;14278;50.784;4.630;2023-03-23T09:56:29;0.30;;;0.30;;
26654;SDS011;14278;50.784;4.630;2023-03-23T09:59:31;0.83;;;0.60;;
26654;SDS011;14278;50.784;4.630;2023-03-23T10:04:46;0.80;;;0.50;;
26654;SDS011;14278;50.784;4.630;2023-03-23T10:07:20;0.40;;;0.40;;
26654;SDS011;14278;50.784;4.630;2023-03-23T10:09:56;0.43;;;0.40;;
26654;SDS011;14278;50.784;4.630;2023-03-23T10:18:03;1.07;;;0.70;;
26654;SDS011;14278;50.784;4.630;2023-03-23T10:20:46;0.73;;;0.70;;
26654;SDS011;14278;50.784;4.630;2023-03-23T10:28:48;1.60;;;0.80;;
26654;SDS011;14278;50.784;4.630;2023-03-23T10:31:21;0.77;;;0.77;;
26654;SDS011;14278;50.784;4.630;2023-03-23T10:33:50;1.03;;;0.90;;
26654;SDS011;14278;50.784;4.630;2023-03-23T10:39:15;1.03;;;0.93;;
26654;SDS011;14278;50.784;4.630;2023-03-23T10:41:45;1.30;;;1.07;;
26654;SDS011;14278;50.784;4.630;2023-03-23T10:44:20;1.03;;;0.90;;
26654;SDS011;14278;50.784;4.630;2023-03-23T10:46:56;1.40;;;0.90;;
26654;SDS011;14278;50.784;4.630;2023-03-23T10:52:03;8.33;;;0.90;;
26654;SDS011;14278;50.784;4.630;2023-03-23T10:54:37;1.27;;;0.87;;
26654;SDS011;14278;50.784;4.630;2023-03-23T10:57:40;0.90;;;0.90;;
26654;SDS011;14278;50.784;4.630;2023-03-23T11:00:01;0.67;;;0.67;;
26654;SDS011;14278;50.784;4.630;2023-03-23T11:02:36;0.93;;;0.93;;
26654;SDS011;14278;50.784;4.630;2023-03-23T11:05:20;5.43;;;1.10;;
26654;SDS011;14278;50.784;4.630;2023-03-23T11:07:53;3.60;;;1.20;;
26654;SDS011;14278;50.784;4.630;2023-03-23T11:10:25;1.23;;;1.00;;
26654;SDS011;14278;50.784;4.630;2023-03-23T11:12:57;4.07;;;1.17;;
26654;SDS011;14278;50.784;4.630;2023-03-23T11:15:36;1.17;;;0.93;;
26654;SDS011;14278;50.784;4.630;2023-03-23T11:18:09;1.13;;;0.83;;
26654;SDS011;14278;50.784;4.630;2023-03-23T11:20:44;5.50;;;1.03;;
26654;SDS011;14278;50.784;4.630;2023-03-23T11:23:22;3.23;;;1.37;;
26654;SDS011;14278;50.784;4.630;2023-03-23T11:26:19;0.70;;;0.70;;
26654;SDS011;14278;50.784;4.630;2023-03-23T11:29:03;2.03;;;1.17;;
26654;SDS011;14278;50.784;4.630;2023-03-23T11:31:39;0.70;;;0.70;;
26654;SDS011;14278;50.784;4.630;2023-03-23T11:34:18;1.33;;;0.77;;
26654;SDS011;14278;50.784;4.630;2023-03-23T11:39:25;1.17;;;0.70;;
26654;SDS011;14278;50.784;4.630;2023-03-23T11:41:51;3.67;;;1.57;;
26654;SDS011;14278;50.784;4.630;2023-03-23T11:44:18;2.83;;;0.93;;
26654;SDS011;14278;50.784;4.630;2023-03-23T11:47:05;1.63;;;1.00;;
26654;SDS011;14278;50.784;4.630;2023-03-23T11:55:19;1.13;;;0.70;;
26654;SDS011;14278;50.784;4.630;2023-03-23T11:57:52;0.97;;;0.80;;
26654;SDS011;14278;50.784;4.630;2023-03-23T12:00:20;2.47;;;1.20;;
26654;SDS011;14278;50.784;4.630;2023-03-23T12:06:08;14.30;;;1.17;;
26654;SDS011;14278;50.784;4.630;2023-03-23T12:14:12;0.83;;;0.57;;
26654;SDS011;14278;50.784;4.630;2023-03-23T12:36:16;0.97;;;0.90;;
26654;SDS011;14278;50.784;4.630;2023-03-23T12:39:00;1.70;;;1.00;;
26654;SDS011;14278;50.784;4.630;2023-03-23T12:44:12;4.40;;;1.30;;
26654;SDS011;14278;50.784;4.630;2023-03-23T12:49:20;2.30;;;1.00;;
26654;SDS011;14278;50.784;4.630;2023-03-23T12:52:16;1.73;;;0.90;;
26654;SDS011;14278;50.784;4.630;2023-03-23T12:54:59;3.77;;;0.90;;
26654;SDS011;14278;50.784;4.630;2023-03-23T12:57:36;2.03;;;1.13;;
26654;SDS011;14278;50.784;4.630;2023-03-23T13:00:19;0.70;;;0.70;;
26654;SDS011;14278;50.784;4.630;2023-03-23T13:05:28;3.00;;;0.97;;
26654;SDS011;14278;50.784;4.630;2023-03-23T13:08:36;5.03;;;1.33;;
26654;SDS011;14278;50.784;4.630;2023-03-23T13:10:59;1.93;;;1.03;;
26654;SDS011;14278;50.784;4.630;2023-03-23T13:13:49;2.23;;;1.23;;
26654;SDS011;14278;50.784;4.630;2023-03-23T13:19:19;3.00;;;1.27;;
26654;SDS011;14278;50.784;4.630;2023-03-23T13:24:49;1.77;;;1.40;;
26654;SDS011;14278;50.784;4.630;2023-03-23T13:27:24;3.87;;;1.27;;
26654;SDS011;14278;50.784;4.630;2023-03-23T13:30:00;3.27;;;1.73;;
26654;SDS011;14278;50.784;4.630;2023-03-23T13:32:43;1.10;;;0.87;;
26654;SDS011;14278;50.784;4.630;2023-03-23T13:35:17;5.30;;;1.30;;
26654;SDS011;14278;50.784;4.630;2023-03-23T13:37:50;1.60;;;1.00;;
26654;SDS011;14278;50.784;4.630;2023-03-23T13:40:27;4.10;;;1.23;;
26654;SDS011;14278;50.784;4.630;2023-03-23T13:42:56;3.93;;;1.37;;
26654;SDS011;14278;50.784;4.630;2023-03-23T13:50:43;1.23;;;0.80;;
26654;SDS011;14278;50.784;4.630;2023-03-23T13:53:25;1.40;;;0.97;;
26654;SDS011;14278;50.784;4.630;2023-03-23T13:58:50;1.40;;;0.93;;
26654;SDS011;14278;50.784;4.630;2023-03-23T14:01:30;1.07;;;0.83;;
26654;SDS011;14278;50.784;4.630;2023-03-23T14:04:18;2.20;;;0.90;;
26654;SDS011;14278;50.784;4.630;2023-03-23T14:06:49;0.97;;;0.80;;
26654;SDS011;14278;50.784;4.630;2023-03-23T14:09:22;4.27;;;1.20;;
26654;SDS011;14278;50.784;4.630;2023-03-23T14:14:23;2.27;;;1.00;;
26654;SDS011;14278;50.784;4.630;2023-03-23T14:16:53;1.10;;;0.80;;
26654;SDS011;14278;50.784;4.630;2023-03-23T14:19:38;2.70;;;1.27;;
26654;SDS011;14278;50.784;4.630;2023-03-23T14:22:18;3.27;;;1.07;;
26654;SDS011;14278;50.784;4.630;2023-03-23T14:24:51;1.70;;;1.10;;
26654;SDS011;14278;50.784;4.630;2023-03-23T14:27:35;1.90;;;1.00;;
26654;SDS011;14278;50.784;4.630;2023-03-23T14:30:04;2.47;;;1.13;;
26654;SDS011;14278;50.784;4.630;2023-03-23T14:32:32;3.07;;;1.20;;
26654;SDS011;14278;50.784;4.630;2023-03-23T14:34:59;5.47;;;1.53;;
26654;SDS011;14278;50.784;4.630;2023-03-23T14:37:31;1.63;;;1.00;;
26654;SDS011;14278;50.784;4.630;2023-03-23T14:39:57;3.87;;;1.20;;
26654;SDS011;14278;50.784;4.630;2023-03-23T14:42:27;1.77;;;1.63;;
26654;SDS011;14278;50.784;4.630;2023-03-23T14:44:56;1.17;;;1.07;;
26654;SDS011;14278;50.784;4.630;2023-03-23T14:47:27;4.03;;;1.43;;
26654;SDS011;14278;50.784;4.630;2023-03-23T14:53:24;8.00;;;1.50;;
26654;SDS011;14278;50.784;4.630;2023-03-23T14:55:59;2.80;;;1.63;;
26654;SDS011;14278;50.784;4.630;2023-03-23T14:58:30;2.67;;;1.83;;
26654;SDS011;14278;50.784;4.630;2023-03-23T15:01:08;5.10;;;1.17;;
26654;SDS011;14278;50.784;4.630;2023-03-23T15:03:43;4.23;;;0.77;;
26654;SDS011;14278;50.784;4.630;2023-03-23T15:06:16;1.33;;;0.73;;
26654;SDS011;14278;50.784;4.630;2023-03-23T15:08:52;1.33;;;0.80;;
26654;SDS011;14278;50.784;4.630;2023-03-23T15:11:39;0.80;;;0.80;;
26654;SDS011;14278;50.784;4.630;2023-03-23T15:14:14;1.43;;;1.00;;
26654;SDS011;14278;50.784;4.630;2023-03-23T15:16:53;1.63;;;0.83;;
26654;SDS011;14278;50.784;4.630;2023-03-23T15:19:25;1.27;;;1.07;;
26654;SDS011;14278;50.784;4.630;2023-03-23T15:21:54;1.37;;;1.10;;
26654;SDS011;14278;50.784;4.630;2023-03-23T15:27:44;7.77;;;1.33;;
26654;SDS011;14278;50.784;4.630;2023-03-23T15:32:47;2.53;;;1.20;;
26654;SDS011;14278;50.784;4.630;2023-03-23T15:35:19;2.30;;;1.30;;
26654;SDS011;14278;50.784;4.630;2023-03-23T15:37:58;3.20;;;1.17;;
26654;SDS011;14278;50.784;4.630;2023-03-23T15:40:26;1.23;;;1.00;;
26654;SDS011;14278;50.784;4.630;2023-03-23T15:43:16;2.40;;;1.30;;
26654;SDS011;14278;50.784;4.630;2023-03-23T15:45:59;1.20;;;1.10;;
26654;SDS011;14278;50.784;4.630;2023-03-23T15:48:45;3.80;;;1.33;;
26654;SDS011;14278;50.784;4.630;2023-03-23T15:51:16;0.70;;;0.70;;
26654;SDS011;14278;50.784;4.630;2023-03-23T15:53:44;2.47;;;1.03;;
26654;SDS011;14278;50.784;4.630;2023-03-23T15:56:11;1.17;;;0.87;;
26654;SDS011;14278;50.784;4.630;2023-03-23T15:58:38;2.30;;;1.30;;
26654;SDS011;14278;50.784;4.630;2023-03-23T16:01:11;1.37;;;1.27;;
26654;SDS011;14278;50.784;4.630;2023-03-23T16:06:22;2.03;;;1.33;;
26654;SDS011;14278;50.784;4.630;2023-03-23T16:08:49;1.70;;;1.17;;
26654;SDS011;14278;50.784;4.630;2023-03-23T16:11:16;3.30;;;1.67;;
26654;SDS011;14278;50.784;4.630;2023-03-23T16:13:43;3.87;;;1.20;;
26654;SDS011;14278;50.784;4.630;2023-03-23T16:16:22;3.50;;;1.60;;
26654;SDS011;14278;50.784;4.630;2023-03-23T16:19:13;2.07;;;1.00;;
26654;SDS011;14278;50.784;4.630;2023-03-23T16:21:43;1.93;;;1.37;;
26654;SDS011;14278;50.784;4.630;2023-03-23T16:24:09;2.10;;;1.13;;
26654;SDS011;14278;50.784;4.630;2023-03-23T16:26:35;2.27;;;1.07;;
26654;SDS011;14278;50.784;4.630;2023-03-23T16:29:08;2.07;;;1.20;;
26654;SDS011;14278;50.784;4.630;2023-03-23T16:31:40;0.73;;;0.67;;
26654;SDS011;14278;50.784;4.630;2023-03-23T16:34:06;2.00;;;0.97;;
26654;SDS011;14278;50.784;4.630;2023-03-23T16:36:32;1.40;;;1.07;;
26654;SDS011;14278;50.784;4.630;2023-03-23T16:38:59;0.50;;;0.50;;
26654;SDS011;14278;50.784;4.630;2023-03-23T16:41:25;0.80;;;0.80;;
26654;SDS011;14278;50.784;4.630;2023-03-23T16:43:51;2.03;;;1.03;;
26654;SDS011;14278;50.784;4.630;2023-03-23T16:46:17;1.87;;;1.20;;
26654;SDS011;14278;50.784;4.630;2023-03-23T16:48:43;1.87;;;1.27;;
26654;SDS011;14278;50.784;4.630;2023-03-23T16:51:09;0.87;;;0.87;;
26654;SDS011;14278;50.784;4.630;2023-03-23T16:53:35;2.93;;;1.20;;
26654;SDS011;14278;50.784;4.630;2023-03-23T16:56:02;0.97;;;0.97;;
26654;SDS011;14278;50.784;4.630;2023-03-23T16:58:28;6.03;;;1.17;;
26654;SDS011;14278;50.784;4.630;2023-03-23T17:00:53;2.17;;;1.10;;